Finnhawk — OJNL — position and weather

sailwx.info

Track history (hours):
 
Tides and Currents Weather Stations Pressure Air Temp Water Temp Dewpoint Dewpoint Depression Visibility Wind Speed Wind Dir Waves Ship Positions

Finnhawk

Last reported at 2016-Jun-30 11:33 UTC. Time now 2016-Jul-01 04:33 UTC.
Position N 59°35' E 023°04'.

Length 163 m; draft 6.7 m.

Type: Ship. MMSI: 230007000.

Date/timePositionNaut miles runAvg speedWind from/ knotsBaromVisibWave heightAir tempDewpointWater temp
2016-Jun-30 11:33N 59°35' E 023°04'1413.7
2016-Jun-30 10:32N 59°39' E 023°30'1716.7
2016-Jun-30 09:32N 59°44' E 024°02'1413.9
2016-Jun-30 08:33N 59°48' E 024°28'3213.6
2016-Jun-30 06:14N 59°54' E 025°30'913.7
2016-Jun-30 05:33N 59°56' E 025°48'1413.9
2016-Jun-30 04:33N 59°59' E 026°15'1413.5
2016-Jun-30 03:33N 60°01' E 026°42'1413.9
2016-Jun-30 02:33N 60°01' E 027°10'1413.9
2016-Jun-30 01:33N 60°09' E 027°33'1313.2
2016-Jun-30 00:34N 60°10' E 027°60'1413.9
2016-Jun-29 23:34N 60°05' E 028°25'1414.3
2016-Jun-29 22:33N 60°03' E 028°54'1414.2
2016-Jun-29 21:33N 60°02' E 029°22'1211.7
2016-Jun-29 20:34N 59°59' E 029°45'1110.9
2016-Jun-29 19:33N 59°54' E 030°05'4 4.2
2016-Jun-29 18:32N 59°54' E 030°13'0 0.0
2016-Jun-29 17:32N 59°54' E 030°13'0 0.0
2016-Jun-29 16:32N 59°54' E 030°13'0 0.0
2016-Jun-29 15:33N 59°54' E 030°13'0 0.0
2016-Jun-29 14:32N 59°54' E 030°13'0 0.0
2016-Jun-29 13:32N 59°54' E 030°13'0 0.0
2016-Jun-29 12:32N 59°54' E 030°13'0 0.0
2016-Jun-29 11:32N 59°54' E 030°13'0 0.0
2016-Jun-29 10:32N 59°54' E 030°13'0 0.0
2016-Jun-29 09:32N 59°54' E 030°13'0 0.0
2016-Jun-29 08:32N 59°54' E 030°13'0 0.0
2016-Jun-29 07:29N 59°54' E 030°13'0 0.0
2016-Jun-29 06:23N 59°54' E 030°13'0 0.1
2016-Jun-29 05:33N 59°53' E 030°13'6 6.3
2016-Jun-29 04:33N 59°55' E 030°01'1211.7
2016-Jun-29 03:33N 59°60' E 029°40'1313.2
2016-Jun-29 02:33N 60°01' E 029°14'1918.6
2016-Jun-29 01:33N 60°02' E 028°36'1717.3
2016-Jun-29 00:33N 60°09' E 028°04'1616.2
2016-Jun-28 23:33N 60°06' E 027°32'1817.8
2016-Jun-28 22:33N 59°58' E 027°01'1717.4
2016-Jun-28 21:33N 59°58' E 026°26'1717.5
2016-Jun-28 20:33N 59°58' E 025°51'1717.0
2016-Jun-28 19:33N 60°00' E 025°17'7 0.9
2016-Jun-28 11:33N 60°07' E 025°12'1514.9
2016-Jun-28 10:33N 59°53' E 024°59'1515.3
2016-Jun-28 09:33N 59°45' E 024°33'1818.2
2016-Jun-28 08:33N 59°40' E 023°59'1918.7
2016-Jun-28 07:33N 59°34' E 023°24'1918.8
2016-Jun-28 06:33N 59°28' E 022°49'32518.9
2016-Jun-27 13:22N 55°41' E 015°34'1619.8
2016-Jun-27 12:33N 55°33' E 015°09'2019.8
2016-Jun-27 11:34N 55°24' E 014°39'1919.2
2016-Jun-27 10:34N 55°11' E 014°14'1919.1
2016-Jun-27 09:33N 55°12' E 013°41'1919.3
2016-Jun-27 08:33N 55°13' E 013°07'1817.9
2016-Jun-27 07:34N 55°19' E 012°38'1313.0
2016-Jun-27 06:33N 55°32' E 012°42'1111.4
2016-Jun-27 05:34N 55°43' E 012°41'1515.5
2016-Jun-27 04:34N 55°59' E 012°41'1716.7
2016-Jun-27 03:33N 56°13' E 012°24'1918.8
2016-Jun-27 02:33N 56°28' E 012°03'1818.4
2016-Jun-27 01:33N 56°45' E 011°52'1918.9
2016-Jun-27 00:33N 57°03' E 011°40'1818.5
2016-Jun-26 23:33N 57°20' E 011°29'1818.3
2016-Jun-26 22:33N 57°35' E 011°09'1919.2
2016-Jun-26 21:33N 57°47' E 010°40'41418.8
2016-Jun-25 23:32N 53°45' E 000°41'1717.9
2016-Jun-25 22:34N 53°35' E 000°18'1414.0
2016-Jun-25 21:33N 53°37' W 000°06'10 9.8
2016-Jun-25 20:34N 53°44' W 000°16'0 0.3
2016-Jun-25 19:31N 53°44' W 000°16'0 0.0
2016-Jun-25 18:31N 53°44' W 000°16'0 0.0
2016-Jun-25 17:31N 53°44' W 000°16'0 0.0
2016-Jun-25 16:31N 53°44' W 000°16'0 0.0
2016-Jun-25 15:31N 53°44' W 000°16'0 0.0
2016-Jun-25 14:31N 53°44' W 000°16'0 0.0
2016-Jun-25 13:31N 53°44' W 000°16'0 0.0
2016-Jun-25 12:31N 53°44' W 000°16'0 0.0
2016-Jun-25 11:28N 53°44' W 000°16'0 0.0
2016-Jun-25 10:31N 53°44' W 000°16'0 0.3
2016-Jun-25 09:33N 53°44' W 000°16'5 5.2
2016-Jun-25 08:34N 53°40' W 000°12'1111.2
2016-Jun-25 07:34N 53°35' E 000°04'10 9.7
2016-Jun-25 06:34N 53°37' E 000°20'3214.7
2016-Jun-25 04:22N 53°54' E 001°06'1316.1
2016-Jun-25 03:33N 54°01' E 001°25'1918.8
2016-Jun-25 02:33N 54°11' E 001°52'32517.6
2016-Jun-24 08:04N 57°32' E 009°27'5615.9
2016-Jun-24 04:33N 57°36' E 011°10'1818.2
2016-Jun-24 03:33N 57°21' E 011°31'1918.6
2016-Jun-24 02:33N 57°04' E 011°43'2318.5
2016-Jun-24 01:18N 56°42' E 011°56'1417.9
2016-Jun-24 00:30N 56°28' E 012°05'1718.4
2016-Jun-23 23:33N 56°14' E 012°23'1918.5
2016-Jun-23 22:33N 55°59' E 012°42'1616.0
2016-Jun-23 21:33N 55°43' E 012°41'1010.3
2016-Jun-23 20:34N 55°33' E 012°43'1514.5
2016-Jun-23 19:34N 55°18' E 012°41'1817.9
2016-Jun-23 18:33N 55°15' E 013°12'1918.9
2016-Jun-23 17:33N 55°14' E 013°45'1918.7
2016-Jun-23 16:34N 55°14' E 014°18'1918.5
2016-Jun-23 15:33N 55°29' E 014°38'1818.5
2016-Jun-23 14:33N 55°38' E 015°06'1918.3
2016-Jun-23 13:32N 55°47' E 015°36'1818.1
2016-Jun-23 12:33N 55°55' E 016°04'  
2016-Jun-21 07:33N 59°33' E 021°17'1918.8
2016-Jun-21 06:33N 59°31' E 021°54'3818.7
2016-Jun-21 04:33N 59°38' E 023°07'1919.1
2016-Jun-21 03:33N 59°42' E 023°44'1919.2
2016-Jun-21 02:33N 59°47' E 024°21'4219.1
2016-Jun-21 00:22N 59°55' E 025°43'1518.7
2016-Jun-20 23:33N 60°03' E 026°08'1716.9
2016-Jun-20 22:34N 60°16' E 026°29'1817.0
2016-Jun-20 21:29N 60°28' E 026°58'1 1.5
2016-Jun-20 20:33N 60°29' E 026°57'0 0.0
2016-Jun-20 19:33N 60°29' E 026°57'0 0.0
2016-Jun-20 18:33N 60°29' E 026°57'0 0.0
2016-Jun-20 17:33N 60°29' E 026°57'0 0.0
2016-Jun-20 16:33N 60°29' E 026°57'0 0.0
2016-Jun-20 15:33N 60°29' E 026°57'0 0.0
2016-Jun-20 14:33N 60°29' E 026°57'0 0.0
2016-Jun-20 13:33N 60°29' E 026°57'0 0.0
2016-Jun-20 12:33N 60°29' E 026°57'  
Track history (hours):
 
Tides and Currents Weather Stations Pressure Air Temp Water Temp Dewpoint Dewpoint Depression Visibility Wind Speed Wind Dir Waves Ship Positions

Finnhawk

Last reported at 2016-Jun-30 11:33 UTC. Time now 2016-Jul-01 04:33 UTC.
Position N 59°35' E 023°04'.

Length 163 m; draft 6.7 m.

Type: Ship. MMSI: 230007000.

Date/timePositionNaut miles runAvg speedWind from/ knotsBaromVisibWave heightAir tempDewpointWater temp
2016-Jun-30 11:33N 59°35' E 023°04'1413.7
2016-Jun-30 10:32N 59°39' E 023°30'1716.7
2016-Jun-30 09:32N 59°44' E 024°02'1413.9
2016-Jun-30 08:33N 59°48' E 024°28'3213.6
2016-Jun-30 06:14N 59°54' E 025°30'913.7
2016-Jun-30 05:33N 59°56' E 025°48'1413.9
2016-Jun-30 04:33N 59°59' E 026°15'1413.5
2016-Jun-30 03:33N 60°01' E 026°42'1413.9
2016-Jun-30 02:33N 60°01' E 027°10'1413.9
2016-Jun-30 01:33N 60°09' E 027°33'1313.2
2016-Jun-30 00:34N 60°10' E 027°60'1413.9
2016-Jun-29 23:34N 60°05' E 028°25'1414.3
2016-Jun-29 22:33N 60°03' E 028°54'1414.2
2016-Jun-29 21:33N 60°02' E 029°22'1211.7
2016-Jun-29 20:34N 59°59' E 029°45'1110.9
2016-Jun-29 19:33N 59°54' E 030°05'4 4.2
2016-Jun-29 18:32N 59°54' E 030°13'0 0.0
2016-Jun-29 17:32N 59°54' E 030°13'0 0.0
2016-Jun-29 16:32N 59°54' E 030°13'0 0.0
2016-Jun-29 15:33N 59°54' E 030°13'0 0.0
2016-Jun-29 14:32N 59°54' E 030°13'0 0.0
2016-Jun-29 13:32N 59°54' E 030°13'0 0.0
2016-Jun-29 12:32N 59°54' E 030°13'0 0.0
2016-Jun-29 11:32N 59°54' E 030°13'0 0.0
2016-Jun-29 10:32N 59°54' E 030°13'0 0.0
2016-Jun-29 09:32N 59°54' E 030°13'0 0.0
2016-Jun-29 08:32N 59°54' E 030°13'0 0.0
2016-Jun-29 07:29N 59°54' E 030°13'0 0.0
2016-Jun-29 06:23N 59°54' E 030°13'0 0.1
2016-Jun-29 05:33N 59°53' E 030°13'6 6.3
2016-Jun-29 04:33N 59°55' E 030°01'1211.7
2016-Jun-29 03:33N 59°60' E 029°40'1313.2
2016-Jun-29 02:33N 60°01' E 029°14'1918.6
2016-Jun-29 01:33N 60°02' E 028°36'1717.3
2016-Jun-29 00:33N 60°09' E 028°04'1616.2
2016-Jun-28 23:33N 60°06' E 027°32'1817.8
2016-Jun-28 22:33N 59°58' E 027°01'1717.4
2016-Jun-28 21:33N 59°58' E 026°26'1717.5
2016-Jun-28 20:33N 59°58' E 025°51'1717.0
2016-Jun-28 19:33N 60°00' E 025°17'7 0.9
2016-Jun-28 11:33N 60°07' E 025°12'1514.9
2016-Jun-28 10:33N 59°53' E 024°59'1515.3
2016-Jun-28 09:33N 59°45' E 024°33'1818.2
2016-Jun-28 08:33N 59°40' E 023°59'1918.7
2016-Jun-28 07:33N 59°34' E 023°24'1918.8
2016-Jun-28 06:33N 59°28' E 022°49'32518.9
2016-Jun-27 13:22N 55°41' E 015°34'1619.8
2016-Jun-27 12:33N 55°33' E 015°09'2019.8
2016-Jun-27 11:34N 55°24' E 014°39'1919.2
2016-Jun-27 10:34N 55°11' E 014°14'1919.1
2016-Jun-27 09:33N 55°12' E 013°41'1919.3
2016-Jun-27 08:33N 55°13' E 013°07'1817.9
2016-Jun-27 07:34N 55°19' E 012°38'1313.0
2016-Jun-27 06:33N 55°32' E 012°42'1111.4
2016-Jun-27 05:34N 55°43' E 012°41'1515.5
2016-Jun-27 04:34N 55°59' E 012°41'1716.7
2016-Jun-27 03:33N 56°13' E 012°24'1918.8
2016-Jun-27 02:33N 56°28' E 012°03'1818.4
2016-Jun-27 01:33N 56°45' E 011°52'1918.9
2016-Jun-27 00:33N 57°03' E 011°40'1818.5
2016-Jun-26 23:33N 57°20' E 011°29'1818.3
2016-Jun-26 22:33N 57°35' E 011°09'1919.2
2016-Jun-26 21:33N 57°47' E 010°40'41418.8
2016-Jun-25 23:32N 53°45' E 000°41'1717.9
2016-Jun-25 22:34N 53°35' E 000°18'1414.0
2016-Jun-25 21:33N 53°37' W 000°06'10 9.8
2016-Jun-25 20:34N 53°44' W 000°16'0 0.3
2016-Jun-25 19:31N 53°44' W 000°16'0 0.0
2016-Jun-25 18:31N 53°44' W 000°16'0 0.0
2016-Jun-25 17:31N 53°44' W 000°16'0 0.0
2016-Jun-25 16:31N 53°44' W 000°16'0 0.0
2016-Jun-25 15:31N 53°44' W 000°16'0 0.0
2016-Jun-25 14:31N 53°44' W 000°16'0 0.0
2016-Jun-25 13:31N 53°44' W 000°16'0 0.0
2016-Jun-25 12:31N 53°44' W 000°16'0 0.0
2016-Jun-25 11:28N 53°44' W 000°16'0 0.0
2016-Jun-25 10:31N 53°44' W 000°16'0 0.3
2016-Jun-25 09:33N 53°44' W 000°16'5 5.2
2016-Jun-25 08:34N 53°40' W 000°12'1111.2
2016-Jun-25 07:34N 53°35' E 000°04'10 9.7
2016-Jun-25 06:34N 53°37' E 000°20'3214.7
2016-Jun-25 04:22N 53°54' E 001°06'1316.1
2016-Jun-25 03:33N 54°01' E 001°25'1918.8
2016-Jun-25 02:33N 54°11' E 001°52'32517.6
2016-Jun-24 08:04N 57°32' E 009°27'5615.9
2016-Jun-24 04:33N 57°36' E 011°10'1818.2
2016-Jun-24 03:33N 57°21' E 011°31'1918.6
2016-Jun-24 02:33N 57°04' E 011°43'2318.5
2016-Jun-24 01:18N 56°42' E 011°56'1417.9
2016-Jun-24 00:30N 56°28' E 012°05'1718.4
2016-Jun-23 23:33N 56°14' E 012°23'1918.5
2016-Jun-23 22:33N 55°59' E 012°42'1616.0
2016-Jun-23 21:33N 55°43' E 012°41'1010.3
2016-Jun-23 20:34N 55°33' E 012°43'1514.5
2016-Jun-23 19:34N 55°18' E 012°41'1817.9
2016-Jun-23 18:33N 55°15' E 013°12'1918.9
2016-Jun-23 17:33N 55°14' E 013°45'1918.7
2016-Jun-23 16:34N 55°14' E 014°18'1918.5
2016-Jun-23 15:33N 55°29' E 014°38'1818.5
2016-Jun-23 14:33N 55°38' E 015°06'1918.3
2016-Jun-23 13:32N 55°47' E 015°36'1818.1
2016-Jun-23 12:33N 55°55' E 016°04'  
2016-Jun-21 07:33N 59°33' E 021°17'1918.8
2016-Jun-21 06:33N 59°31' E 021°54'3818.7
2016-Jun-21 04:33N 59°38' E 023°07'1919.1
2016-Jun-21 03:33N 59°42' E 023°44'1919.2
2016-Jun-21 02:33N 59°47' E 024°21'4219.1
2016-Jun-21 00:22N 59°55' E 025°43'1518.7
2016-Jun-20 23:33N 60°03' E 026°08'1716.9
2016-Jun-20 22:34N 60°16' E 026°29'1817.0
2016-Jun-20 21:29N 60°28' E 026°58'1 1.5
2016-Jun-20 20:33N 60°29' E 026°57'0 0.0
2016-Jun-20 19:33N 60°29' E 026°57'0 0.0
2016-Jun-20 18:33N 60°29' E 026°57'0 0.0
2016-Jun-20 17:33N 60°29' E 026°57'0 0.0
2016-Jun-20 16:33N 60°29' E 026°57'0 0.0
2016-Jun-20 15:33N 60°29' E 026°57'0 0.0
2016-Jun-20 14:33N 60°29' E 026°57'0 0.0
2016-Jun-20 13:33N 60°29' E 026°57'0 0.0
2016-Jun-20 12:33N 60°29' E 026°57'  

Dump ship's entire track history